sensor_id;sensor_type;location;lat;lon;timestamp;pressure;altitude;pressure_sealevel;temperature;humidity
43553;BME280;29153;42.696;23.218;2023-04-07T00:01:06;94180.70;;;0.54;74.40
43553;BME280;29153;42.696;23.218;2023-04-07T00:03:34;94191.63;;;0.53;74.63
43553;BME280;29153;42.696;23.218;2023-04-07T00:06:03;94146.01;;;0.23;75.02
43553;BME280;29153;42.696;23.218;2023-04-07T00:08:31;94182.72;;;0.52;75.03
43553;BME280;29153;42.696;23.218;2023-04-07T00:10:58;94179.41;;;0.54;74.55
43553;BME280;29153;42.696;23.218;2023-04-07T00:13:26;94179.04;;;0.59;74.11
43553;BME280;29153;42.696;23.218;2023-04-07T00:15:54;94185.12;;;0.53;73.56
43553;BME280;29153;42.696;23.218;2023-04-07T00:18:22;94179.11;;;0.53;73.98
43553;BME280;29153;42.696;23.218;2023-04-07T00:20:49;94179.34;;;0.51;73.79
43553;BME280;29153;42.696;23.218;2023-04-07T00:23:17;94175.70;;;0.52;74.03
43553;BME280;29153;42.696;23.218;2023-04-07T00:25:49;94171.72;;;0.59;73.02
43553;BME280;29153;42.696;23.218;2023-04-07T00:28:17;94171.33;;;0.64;72.45
43553;BME280;29153;42.696;23.218;2023-04-07T00:30:44;94148.08;;;0.51;72.57
43553;BME280;29153;42.696;23.218;2023-04-07T00:33:12;94169.52;;;0.65;72.51
43553;BME280;29153;42.696;23.218;2023-04-07T00:35:40;94171.12;;;0.66;72.52
43553;BME280;29153;42.696;23.218;2023-04-07T00:38:07;94168.84;;;0.78;70.41
43553;BME280;29153;42.696;23.218;2023-04-07T00:40:35;94169.96;;;0.91;70.40
43553;BME280;29153;42.696;23.218;2023-04-07T00:43:02;94170.63;;;0.87;70.10
43553;BME280;29153;42.696;23.218;2023-04-07T00:45:30;94168.61;;;0.89;70.45
43553;BME280;29153;42.696;23.218;2023-04-07T00:47:58;94167.56;;;0.90;69.67
43553;BME280;29153;42.696;23.218;2023-04-07T00:50:25;94176.48;;;0.91;70.30
43553;BME280;29153;42.696;23.218;2023-04-07T00:52:53;94172.52;;;0.89;70.86
43553;BME280;29153;42.696;23.218;2023-04-07T00:55:22;94178.23;;;0.88;70.68
43553;BME280;29153;42.696;23.218;2023-04-07T00:57:51;94173.48;;;0.85;71.05
43553;BME280;29153;42.696;23.218;2023-04-07T01:00:18;94172.78;;;0.90;70.45
43553;BME280;29153;42.696;23.218;2023-04-07T01:02:57;94172.86;;;0.93;70.17
43553;BME280;29153;42.696;23.218;2023-04-07T01:05:34;94170.87;;;0.85;70.94
43553;BME280;29153;42.696;23.218;2023-04-07T01:11:49;94161.75;;;0.85;71.10
43553;BME280;29153;42.696;23.218;2023-04-07T01:13:35;94157.25;;;0.83;71.45
43553;BME280;29153;42.696;23.218;2023-04-07T01:16:04;94166.05;;;0.91;70.83
43553;BME280;29153;42.696;23.218;2023-04-07T01:18:35;94166.48;;;0.98;69.68
43553;BME280;29153;42.696;23.218;2023-04-07T01:21:13;94165.48;;;1.10;68.27
43553;BME280;29153;42.696;23.218;2023-04-07T01:24:00;94130.95;;;1.06;67.88
43553;BME280;29153;42.696;23.218;2023-04-07T01:26:29;94159.23;;;1.32;68.16
43553;BME280;29153;42.696;23.218;2023-04-07T01:29:32;94152.30;;;1.37;67.59
43553;BME280;29153;42.696;23.218;2023-04-07T01:32:03;94157.88;;;1.41;66.18
43553;BME280;29153;42.696;23.218;2023-04-07T01:34:32;94152.16;;;1.53;65.54
43553;BME280;29153;42.696;23.218;2023-04-07T01:37:01;94147.94;;;1.64;65.49
43553;BME280;29153;42.696;23.218;2023-04-07T01:39:29;94154.02;;;1.78;64.71
43553;BME280;29153;42.696;23.218;2023-04-07T01:41:58;94160.38;;;1.82;64.90
43553;BME280;29153;42.696;23.218;2023-04-07T01:44:32;94158.61;;;1.86;65.37
43553;BME280;29153;42.696;23.218;2023-04-07T01:47:00;94153.38;;;1.86;65.59
43553;BME280;29153;42.696;23.218;2023-04-07T01:49:29;94147.14;;;1.87;65.28
43553;BME280;29153;42.696;23.218;2023-04-07T01:51:59;94149.80;;;1.89;64.46
43553;BME280;29153;42.696;23.218;2023-04-07T01:54:26;94149.42;;;1.83;64.86
43553;BME280;29153;42.696;23.218;2023-04-07T01:56:54;94147.20;;;1.77;63.99
43553;BME280;29153;42.696;23.218;2023-04-07T01:59:22;94141.69;;;1.76;64.23
43553;BME280;29153;42.696;23.218;2023-04-07T02:01:49;94141.83;;;1.70;65.48
43553;BME280;29153;42.696;23.218;2023-04-07T02:04:27;94138.42;;;1.69;65.56
43553;BME280;29153;42.696;23.218;2023-04-07T02:07:02;94144.78;;;1.62;65.31
43553;BME280;29153;42.696;23.218;2023-04-07T02:09:32;94141.58;;;1.71;66.47
43553;BME280;29153;42.696;23.218;2023-04-07T02:12:03;94129.32;;;1.72;66.67
43553;BME280;29153;42.696;23.218;2023-04-07T02:14:32;94145.22;;;1.82;63.86
43553;BME280;29153;42.696;23.218;2023-04-07T02:17:03;94143.41;;;1.82;64.50
43553;BME280;29153;42.696;23.218;2023-04-07T02:19:31;94129.95;;;1.88;64.09
43553;BME280;29153;42.696;23.218;2023-04-07T02:22:01;94142.36;;;1.95;62.54
43553;BME280;29153;42.696;23.218;2023-04-07T02:24:29;94137.00;;;2.02;63.40
43553;BME280;29153;42.696;23.218;2023-04-07T02:26:56;94135.08;;;1.97;64.54
43553;BME280;29153;42.696;23.218;2023-04-07T02:29:26;94127.49;;;1.96;64.48
43553;BME280;29153;42.696;23.218;2023-04-07T02:31:55;94133.66;;;2.04;63.04
43553;BME280;29153;42.696;23.218;2023-04-07T02:34:22;94133.70;;;2.06;63.46
43553;BME280;29153;42.696;23.218;2023-04-07T02:36:50;94140.67;;;2.15;62.23
43553;BME280;29153;42.696;23.218;2023-04-07T02:39:18;94133.95;;;2.19;62.83
43553;BME280;29153;42.696;23.218;2023-04-07T02:41:45;94140.31;;;2.23;62.63
43553;BME280;29153;42.696;23.218;2023-04-07T02:44:13;94143.54;;;2.27;63.89
43553;BME280;29153;42.696;23.218;2023-04-07T02:46:40;94147.05;;;2.33;62.51
43553;BME280;29153;42.696;23.218;2023-04-07T02:49:08;94144.62;;;2.29;61.98
43553;BME280;29153;42.696;23.218;2023-04-07T02:51:35;94142.16;;;2.37;62.09
43553;BME280;29153;42.696;23.218;2023-04-07T02:54:03;94147.89;;;2.36;62.29
43553;BME280;29153;42.696;23.218;2023-04-07T02:56:31;94152.75;;;2.44;62.43
43553;BME280;29153;42.696;23.218;2023-04-07T02:58:58;94153.94;;;2.51;62.75
43553;BME280;29153;42.696;23.218;2023-04-07T03:01:26;94155.17;;;2.48;62.51
43553;BME280;29153;42.696;23.218;2023-04-07T03:03:54;94153.36;;;2.49;62.06
43553;BME280;29153;42.696;23.218;2023-04-07T03:06:21;94149.59;;;2.42;62.28
43553;BME280;29153;42.696;23.218;2023-04-07T03:08:49;94162.29;;;2.50;61.96
43553;BME280;29153;42.696;23.218;2023-04-07T03:11:16;94155.75;;;2.50;61.13
43553;BME280;29153;42.696;23.218;2023-04-07T03:13:44;94158.84;;;2.47;61.88
43553;BME280;29153;42.696;23.218;2023-04-07T03:16:12;94160.88;;;2.45;61.84
43553;BME280;29153;42.696;23.218;2023-04-07T03:18:39;94162.80;;;2.50;61.70
43553;BME280;29153;42.696;23.218;2023-04-07T03:21:07;94156.91;;;2.57;62.49
43553;BME280;29153;42.696;23.218;2023-04-07T03:23:34;94165.01;;;2.55;60.81
43553;BME280;29153;42.696;23.218;2023-04-07T03:26:02;94156.45;;;2.46;62.27
43553;BME280;29153;42.696;23.218;2023-04-07T03:28:30;94148.47;;;2.38;61.95
43553;BME280;29153;42.696;23.218;2023-04-07T03:30:57;94147.05;;;2.33;62.22
43553;BME280;29153;42.696;23.218;2023-04-07T03:33:25;94151.34;;;2.25;62.20
43553;BME280;29153;42.696;23.218;2023-04-07T03:35:52;94154.60;;;2.18;62.62
43553;BME280;29153;42.696;23.218;2023-04-07T03:38:20;94148.51;;;2.15;63.27
43553;BME280;29153;42.696;23.218;2023-04-07T03:40:48;94154.85;;;2.05;64.05
43553;BME280;29153;42.696;23.218;2023-04-07T03:43:15;94154.34;;;1.94;64.47
43553;BME280;29153;42.696;23.218;2023-04-07T03:45:43;94153.16;;;1.87;64.71
43553;BME280;29153;42.696;23.218;2023-04-07T03:48:10;94149.29;;;1.90;65.43
43553;BME280;29153;42.696;23.218;2023-04-07T03:50:39;94159.19;;;1.88;66.16
43553;BME280;29153;42.696;23.218;2023-04-07T03:53:06;94152.84;;;1.83;66.02
43553;BME280;29153;42.696;23.218;2023-04-07T03:55:36;94156.00;;;1.86;66.37
43553;BME280;29153;42.696;23.218;2023-04-07T03:58:04;94153.73;;;1.77;65.88
43553;BME280;29153;42.696;23.218;2023-04-07T04:00:31;94160.27;;;1.77;66.16
43553;BME280;29153;42.696;23.218;2023-04-07T04:02:59;94155.67;;;1.70;66.15
43553;BME280;29153;42.696;23.218;2023-04-07T04:05:27;94158.84;;;1.72;66.17
43553;BME280;29153;42.696;23.218;2023-04-07T04:07:55;94155.60;;;1.68;66.03
43553;BME280;29153;42.696;23.218;2023-04-07T04:10:22;94157.08;;;1.87;66.27
43553;BME280;29153;42.696;23.218;2023-04-07T04:12:50;94155.89;;;1.92;64.19
43553;BME280;29153;42.696;23.218;2023-04-07T04:29:46;94158.62;;;2.77;62.43
43553;BME280;29153;42.696;23.218;2023-04-07T04:32:14;94169.21;;;2.85;62.30
43553;BME280;29153;42.696;23.218;2023-04-07T04:34:42;94168.48;;;2.87;62.26
43553;BME280;29153;42.696;23.218;2023-04-07T04:37:10;94175.34;;;2.90;62.56
43553;BME280;29153;42.696;23.218;2023-04-07T04:39:37;94171.73;;;2.80;62.36
43553;BME280;29153;42.696;23.218;2023-04-07T04:42:05;94172.02;;;2.81;62.24
43553;BME280;29153;42.696;23.218;2023-04-07T04:44:33;94173.08;;;2.96;61.91
43553;BME280;29153;42.696;23.218;2023-04-07T04:47:01;94171.03;;;2.98;62.52
43553;BME280;29153;42.696;23.218;2023-04-07T04:49:28;94174.22;;;2.86;61.92
43553;BME280;29153;42.696;23.218;2023-04-07T04:51:56;94174.83;;;2.91;59.82
43553;BME280;29153;42.696;23.218;2023-04-07T04:54:24;94176.67;;;2.79;59.98
43553;BME280;29153;42.696;23.218;2023-04-07T04:56:52;94172.72;;;2.76;59.85
43553;BME280;29153;42.696;23.218;2023-04-07T04:59:19;94169.18;;;2.82;60.47
43553;BME280;29153;42.696;23.218;2023-04-07T05:01:47;94165.58;;;2.86;59.39
43553;BME280;29153;42.696;23.218;2023-04-07T05:04:15;94185.80;;;2.90;59.76
43553;BME280;29153;42.696;23.218;2023-04-07T05:06:43;94184.34;;;3.11;59.12
43553;BME280;29153;42.696;23.218;2023-04-07T05:09:11;94196.20;;;3.16;60.84
43553;BME280;29153;42.696;23.218;2023-04-07T05:11:40;94191.73;;;3.31;58.47
43553;BME280;29153;42.696;23.218;2023-04-07T05:14:07;94194.30;;;3.42;60.36
43553;BME280;29153;42.696;23.218;2023-04-07T05:16:35;94200.70;;;3.51;61.06
43553;BME280;29153;42.696;23.218;2023-04-07T05:19:03;94201.27;;;3.53;59.36
43553;BME280;29153;42.696;23.218;2023-04-07T05:21:30;94207.02;;;3.70;58.24
43553;BME280;29153;42.696;23.218;2023-04-07T05:23:58;94211.35;;;3.78;59.06
43553;BME280;29153;42.696;23.218;2023-04-07T05:26:26;94199.40;;;3.68;58.89
43553;BME280;29153;42.696;23.218;2023-04-07T05:28:53;94211.23;;;3.87;59.09
43553;BME280;29153;42.696;23.218;2023-04-07T05:31:21;94210.31;;;3.96;58.80
43553;BME280;29153;42.696;23.218;2023-04-07T05:33:48;94215.91;;;4.21;58.05
43553;BME280;29153;42.696;23.218;2023-04-07T05:36:16;94208.66;;;4.28;56.01
43553;BME280;29153;42.696;23.218;2023-04-07T05:38:44;94203.84;;;4.39;56.55
43553;BME280;29153;42.696;23.218;2023-04-07T05:41:11;94211.70;;;4.20;56.41
43553;BME280;29153;42.696;23.218;2023-04-07T05:43:39;94217.84;;;4.09;57.47
43553;BME280;29153;42.696;23.218;2023-04-07T05:46:06;94206.97;;;4.20;56.58
43553;BME280;29153;42.696;23.218;2023-04-07T05:48:34;94209.92;;;4.23;55.63
43553;BME280;29153;42.696;23.218;2023-04-07T05:51:02;94220.03;;;4.15;56.12
43553;BME280;29153;42.696;23.218;2023-04-07T05:53:29;94218.81;;;4.22;54.44
43553;BME280;29153;42.696;23.218;2023-04-07T05:55:57;94222.35;;;4.33;55.81
43553;BME280;29153;42.696;23.218;2023-04-07T05:58:25;94213.44;;;4.31;55.43
43553;BME280;29153;42.696;23.218;2023-04-07T06:00:53;94216.37;;;4.35;55.62
43553;BME280;29153;42.696;23.218;2023-04-07T06:03:21;94217.63;;;4.51;55.04
43553;BME280;29153;42.696;23.218;2023-04-07T06:05:48;94214.52;;;4.54;55.26
43553;BME280;29153;42.696;23.218;2023-04-07T06:08:16;94222.50;;;4.43;54.70
43553;BME280;29153;42.696;23.218;2023-04-07T06:10:44;94215.68;;;4.64;54.13
43553;BME280;29153;42.696;23.218;2023-04-07T06:13:12;94201.76;;;4.85;54.91
43553;BME280;29153;42.696;23.218;2023-04-07T06:15:39;94215.87;;;5.03;54.00
43553;BME280;29153;42.696;23.218;2023-04-07T06:18:07;94217.05;;;5.39;53.99
43553;BME280;29153;42.696;23.218;2023-04-07T06:20:35;94216.89;;;5.53;52.22
43553;BME280;29153;42.696;23.218;2023-04-07T06:23:02;94215.39;;;5.60;53.49
43553;BME280;29153;42.696;23.218;2023-04-07T06:25:30;94214.98;;;5.73;54.45
43553;BME280;29153;42.696;23.218;2023-04-07T06:27:58;94221.33;;;5.82;51.78
43553;BME280;29153;42.696;23.218;2023-04-07T06:30:26;94218.16;;;6.07;53.26
43553;BME280;29153;42.696;23.218;2023-04-07T06:32:53;94221.48;;;5.94;51.27
43553;BME280;29153;42.696;23.218;2023-04-07T06:35:21;94215.37;;;6.26;51.48
43553;BME280;29153;42.696;23.218;2023-04-07T06:37:50;94221.66;;;6.72;51.20
43553;BME280;29153;42.696;23.218;2023-04-07T06:40:18;94208.37;;;7.04;49.58
43553;BME280;29153;42.696;23.218;2023-04-07T06:42:46;94222.90;;;7.16;48.12
43553;BME280;29153;42.696;23.218;2023-04-07T06:45:13;94216.39;;;7.44;48.45
43553;BME280;29153;42.696;23.218;2023-04-07T06:47:41;94216.40;;;7.59;49.00
43553;BME280;29153;42.696;23.218;2023-04-07T06:50:09;94216.40;;;7.59;49.96
43553;BME280;29153;42.696;23.218;2023-04-07T06:52:36;94219.80;;;7.50;49.55
43553;BME280;29153;42.696;23.218;2023-04-07T06:55:04;94222.19;;;7.51;49.97
43553;BME280;29153;42.696;23.218;2023-04-07T06:57:33;94228.23;;;7.47;48.00
43553;BME280;29153;42.696;23.218;2023-04-07T07:00:00;94214.03;;;7.75;46.95
43553;BME280;29153;42.696;23.218;2023-04-07T07:02:28;94223.28;;;8.08;47.61
43553;BME280;29153;42.696;23.218;2023-04-07T07:04:56;94224.05;;;7.96;46.76
43553;BME280;29153;42.696;23.218;2023-04-07T07:07:24;94219.84;;;7.77;47.28
43553;BME280;29153;42.696;23.218;2023-04-07T07:09:52;94231.17;;;7.68;47.67
43553;BME280;29153;42.696;23.218;2023-04-07T07:12:20;94190.80;;;7.27;47.53
43553;BME280;29153;42.696;23.218;2023-04-07T07:14:48;94233.52;;;7.62;46.58
43553;BME280;29153;42.696;23.218;2023-04-07T07:17:15;94234.07;;;7.71;47.47
43553;BME280;29153;42.696;23.218;2023-04-07T07:19:43;94227.22;;;7.75;48.98
43553;BME280;29153;42.696;23.218;2023-04-07T07:22:11;94232.50;;;7.73;46.47
43553;BME280;29153;42.696;23.218;2023-04-07T07:24:38;94237.19;;;7.46;46.92
43553;BME280;29153;42.696;23.218;2023-04-07T07:27:06;94238.25;;;7.50;47.94
43553;BME280;29153;42.696;23.218;2023-04-07T07:29:33;94244.02;;;7.26;47.11
43553;BME280;29153;42.696;23.218;2023-04-07T07:32:01;94241.38;;;7.37;47.15
43553;BME280;29153;42.696;23.218;2023-04-07T07:34:29;94245.16;;;7.81;47.33
43553;BME280;29153;42.696;23.218;2023-04-07T07:36:56;94241.45;;;8.22;46.48
43553;BME280;29153;42.696;23.218;2023-04-07T07:39:24;94242.55;;;8.34;45.33
43553;BME280;29153;42.696;23.218;2023-04-07T07:41:52;94241.22;;;8.47;46.66
43553;BME280;29153;42.696;23.218;2023-04-07T07:44:20;94244.34;;;8.64;46.49
43553;BME280;29153;42.696;23.218;2023-04-07T07:46:49;94241.66;;;8.74;45.22
43553;BME280;29153;42.696;23.218;2023-04-07T07:49:16;94246.07;;;8.99;44.93
43553;BME280;29153;42.696;23.218;2023-04-07T07:51:44;94243.64;;;9.12;43.37
43553;BME280;29153;42.696;23.218;2023-04-07T07:54:12;94239.40;;;9.17;43.88
43553;BME280;29153;42.696;23.218;2023-04-07T07:56:40;94241.82;;;9.10;43.66
43553;BME280;29153;42.696;23.218;2023-04-07T07:59:07;94244.28;;;9.48;44.36
43553;BME280;29153;42.696;23.218;2023-04-07T08:01:35;94250.70;;;9.30;42.84
43553;BME280;29153;42.696;23.218;2023-04-07T08:04:03;94251.19;;;8.70;43.04
43553;BME280;29153;42.696;23.218;2023-04-07T08:06:30;94252.23;;;8.74;42.59
43553;BME280;29153;42.696;23.218;2023-04-07T08:08:58;94258.31;;;8.69;43.62
43553;BME280;29153;42.696;23.218;2023-04-07T08:11:26;94259.86;;;8.83;45.42
43553;BME280;29153;42.696;23.218;2023-04-07T08:13:54;94256.11;;;8.99;42.51
43553;BME280;29153;42.696;23.218;2023-04-07T08:16:21;94245.72;;;9.21;43.51
43553;BME280;29153;42.696;23.218;2023-04-07T08:18:49;94257.14;;;9.08;43.37
43553;BME280;29153;42.696;23.218;2023-04-07T08:21:17;94251.73;;;9.34;44.51
43553;BME280;29153;42.696;23.218;2023-04-07T08:23:45;94259.00;;;9.03;43.52
43553;BME280;29153;42.696;23.218;2023-04-07T08:26:13;94257.97;;;9.01;43.43
43553;BME280;29153;42.696;23.218;2023-04-07T08:28:40;94254.95;;;9.26;46.06
43553;BME280;29153;42.696;23.218;2023-04-07T08:31:08;94255.59;;;9.02;43.69
43553;BME280;29153;42.696;23.218;2023-04-07T08:33:35;94249.94;;;9.27;42.91
43553;BME280;29153;42.696;23.218;2023-04-07T08:36:03;94249.80;;;9.52;43.92
43553;BME280;29153;42.696;23.218;2023-04-07T08:38:31;94243.08;;;10.09;46.26
43553;BME280;29153;42.696;23.218;2023-04-07T08:41:02;94242.26;;;10.47;42.23
43553;BME280;29153;42.696;23.218;2023-04-07T08:43:29;94246.50;;;10.45;41.72
43553;BME280;29153;42.696;23.218;2023-04-07T08:45:57;94244.61;;;10.15;42.46
43553;BME280;29153;42.696;23.218;2023-04-07T08:48:29;94250.92;;;10.26;41.78
43553;BME280;29153;42.696;23.218;2023-04-07T08:51:00;94248.50;;;10.59;43.80
43553;BME280;29153;42.696;23.218;2023-04-07T08:53:34;94245.92;;;11.04;42.19
43553;BME280;29153;42.696;23.218;2023-04-07T08:56:00;94244.02;;;11.49;38.48
43553;BME280;29153;42.696;23.218;2023-04-07T08:58:29;94244.02;;;11.49;38.48
43553;BME280;29153;42.696;23.218;2023-04-07T09:00:57;94245.31;;;10.85;39.26
43553;BME280;29153;42.696;23.218;2023-04-07T09:03:26;94244.59;;;11.04;38.55
43553;BME280;29153;42.696;23.218;2023-04-07T09:05:54;94246.17;;;10.78;38.55
43553;BME280;29153;42.696;23.218;2023-04-07T09:08:22;94246.13;;;10.83;39.66
43553;BME280;29153;42.696;23.218;2023-04-07T09:10:49;94240.38;;;10.76;41.19
43553;BME280;29153;42.696;23.218;2023-04-07T09:13:17;94241.30;;;10.88;37.33
43553;BME280;29153;42.696;23.218;2023-04-07T09:15:45;94241.30;;;10.88;37.33
43553;BME280;29153;42.696;23.218;2023-04-07T09:18:12;94244.94;;;11.18;41.75
43553;BME280;29153;42.696;23.218;2023-04-07T09:21:00;94244.19;;;11.15;41.19
43553;BME280;29153;42.696;23.218;2023-04-07T09:23:32;94254.22;;;11.39;39.30
43553;BME280;29153;42.696;23.218;2023-04-07T09:28:57;94253.71;;;10.92;41.17
43553;BME280;29153;42.696;23.218;2023-04-07T09:31:17;94257.22;;;11.12;41.34
43553;BME280;29153;42.696;23.218;2023-04-07T09:33:48;94245.99;;;11.20;39.56
43553;BME280;29153;42.696;23.218;2023-04-07T09:36:16;94258.67;;;11.23;39.49
43553;BME280;29153;42.696;23.218;2023-04-07T09:38:44;94261.27;;;10.80;41.42
43553;BME280;29153;42.696;23.218;2023-04-07T09:41:15;94261.44;;;10.31;40.33
43553;BME280;29153;42.696;23.218;2023-04-07T09:43:44;94261.15;;;9.55;42.29
43553;BME280;29153;42.696;23.218;2023-04-07T09:46:15;94264.08;;;9.51;43.29
43553;BME280;29153;42.696;23.218;2023-04-07T09:48:44;94266.24;;;9.44;42.38
43553;BME280;29153;42.696;23.218;2023-04-07T09:51:14;94264.34;;;9.52;41.26
43553;BME280;29153;42.696;23.218;2023-04-07T09:53:43;94264.34;;;9.52;41.26
43553;BME280;29153;42.696;23.218;2023-04-07T09:56:15;94266.94;;;9.59;42.80
43553;BME280;29153;42.696;23.218;2023-04-07T09:58:45;94261.08;;;9.70;41.12
43553;BME280;29153;42.696;23.218;2023-04-07T10:01:13;94262.03;;;9.38;44.74
43553;BME280;29153;42.696;23.218;2023-04-07T10:03:44;94268.87;;;9.49;42.98
43553;BME280;29153;42.696;23.218;2023-04-07T10:06:13;94265.93;;;9.50;42.42
43553;BME280;29153;42.696;23.218;2023-04-07T10:08:42;94271.50;;;9.46;43.39
43553;BME280;29153;42.696;23.218;2023-04-07T10:11:09;94262.78;;;9.48;43.70
43553;BME280;29153;42.696;23.218;2023-04-07T10:13:39;94268.12;;;9.41;42.57
43553;BME280;29153;42.696;23.218;2023-04-07T10:16:07;94270.02;;;9.25;42.68
43553;BME280;29153;42.696;23.218;2023-04-07T10:18:35;94267.18;;;9.09;42.10
43553;BME280;29153;42.696;23.218;2023-04-07T10:21:03;94265.55;;;9.23;44.24
43553;BME280;29153;42.696;23.218;2023-04-07T10:26:22;94270.41;;;8.86;42.79
43553;BME280;29153;42.696;23.218;2023-04-07T10:28:54;94267.55;;;8.75;47.26
43553;BME280;29153;42.696;23.218;2023-04-07T10:31:22;94270.41;;;8.98;47.38
43553;BME280;29153;42.696;23.218;2023-04-07T10:33:52;94269.08;;;8.91;47.67
43553;BME280;29153;42.696;23.218;2023-04-07T10:36:22;94282.09;;;8.67;48.05
43553;BME280;29153;42.696;23.218;2023-04-07T10:41:39;94271.20;;;8.91;48.38
43553;BME280;29153;42.696;23.218;2023-04-07T10:44:09;94278.09;;;8.90;50.73
43553;BME280;29153;42.696;23.218;2023-04-07T10:47:10;94277.33;;;8.77;48.02
43553;BME280;29153;42.696;23.218;2023-04-07T10:49:17;94278.66;;;8.72;46.78
43553;BME280;29153;42.696;23.218;2023-04-07T10:54:33;94279.48;;;8.47;46.77
43553;BME280;29153;42.696;23.218;2023-04-07T10:59:39;94276.77;;;8.82;49.34
43553;BME280;29153;42.696;23.218;2023-04-07T11:04:45;94275.80;;;9.35;47.25
43553;BME280;29153;42.696;23.218;2023-04-07T11:07:14;94272.38;;;9.32;45.65
43553;BME280;29153;42.696;23.218;2023-04-07T11:09:43;94275.78;;;9.40;48.00
43553;BME280;29153;42.696;23.218;2023-04-07T11:12:23;94288.00;;;9.28;44.91
43553;BME280;29153;42.696;23.218;2023-04-07T11:14:52;94280.41;;;9.04;47.63
43553;BME280;29153;42.696;23.218;2023-04-07T11:17:19;94281.99;;;9.05;47.20
43553;BME280;29153;42.696;23.218;2023-04-07T11:19:52;94284.66;;;9.02;48.67
43553;BME280;29153;42.696;23.218;2023-04-07T11:22:20;94286.69;;;9.21;45.86
43553;BME280;29153;42.696;23.218;2023-04-07T11:24:47;94283.81;;;9.14;46.68
43553;BME280;29153;42.696;23.218;2023-04-07T11:27:15;94286.39;;;9.32;45.98
43553;BME280;29153;42.696;23.218;2023-04-07T11:29:43;94283.99;;;9.36;46.60
43553;BME280;29153;42.696;23.218;2023-04-07T11:32:11;94289.09;;;9.20;45.62
43553;BME280;29153;42.696;23.218;2023-04-07T11:34:39;94289.05;;;9.25;45.36
43553;BME280;29153;42.696;23.218;2023-04-07T11:37:24;94291.91;;;9.41;45.62
43553;BME280;29153;42.696;23.218;2023-04-07T11:39:57;94298.52;;;9.41;46.56
43553;BME280;29153;42.696;23.218;2023-04-07T11:42:36;94295.30;;;9.49;47.26
43553;BME280;29153;42.696;23.218;2023-04-07T11:45:04;94291.17;;;9.28;47.39
43553;BME280;29153;42.696;23.218;2023-04-07T11:47:36;94291.38;;;9.39;46.95
43553;BME280;29153;42.696;23.218;2023-04-07T11:50:04;94292.29;;;9.04;47.21
43553;BME280;29153;42.696;23.218;2023-04-07T11:52:45;94288.66;;;8.80;47.96
43553;BME280;29153;42.696;23.218;2023-04-07T11:55:20;94288.42;;;8.66;48.54
43553;BME280;29153;42.696;23.218;2023-04-07T11:57:51;94289.73;;;8.76;50.46
43553;BME280;29153;42.696;23.218;2023-04-07T12:00:19;94297.08;;;8.92;48.79
43553;BME280;29153;42.696;23.218;2023-04-07T12:02:47;94289.49;;;8.52;48.17
43553;BME280;29153;42.696;23.218;2023-04-07T12:05:15;94284.41;;;8.91;51.42
43553;BME280;29153;42.696;23.218;2023-04-07T12:07:53;94283.63;;;8.83;49.79
43553;BME280;29153;42.696;23.218;2023-04-07T12:10:23;94287.59;;;8.83;49.48
43553;BME280;29153;42.696;23.218;2023-04-07T12:12:54;94285.73;;;8.86;50.31
43553;BME280;29153;42.696;23.218;2023-04-07T12:15:21;94280.37;;;9.11;50.56
43553;BME280;29153;42.696;23.218;2023-04-07T12:17:49;94282.53;;;8.99;48.40
43553;BME280;29153;42.696;23.218;2023-04-07T12:20:16;94274.84;;;9.03;50.70
43553;BME280;29153;42.696;23.218;2023-04-07T12:22:44;94278.06;;;8.97;49.81
43553;BME280;29153;42.696;23.218;2023-04-07T12:25:12;94280.14;;;9.05;48.61
43553;BME280;29153;42.696;23.218;2023-04-07T12:27:40;94275.09;;;9.11;47.58
43553;BME280;29153;42.696;23.218;2023-04-07T12:30:08;94271.36;;;9.23;47.57
43553;BME280;29153;42.696;23.218;2023-04-07T12:32:35;94280.33;;;9.27;47.22
43553;BME280;29153;42.696;23.218;2023-04-07T12:35:03;94275.61;;;9.19;47.21
43553;BME280;29153;42.696;23.218;2023-04-07T12:37:32;94285.59;;;9.37;47.91
43553;BME280;29153;42.696;23.218;2023-04-07T12:40:00;94288.75;;;9.34;48.26
43553;BME280;29153;42.696;23.218;2023-04-07T12:42:27;94287.89;;;9.46;48.10
43553;BME280;29153;42.696;23.218;2023-04-07T12:44:55;94289.48;;;9.47;49.12
43553;BME280;29153;42.696;23.218;2023-04-07T12:47:23;94286.44;;;9.17;47.40
43553;BME280;29153;42.696;23.218;2023-04-07T12:49:50;94290.23;;;8.93;48.43
43553;BME280;29153;42.696;23.218;2023-04-07T12:52:18;94286.63;;;9.33;48.89
43553;BME280;29153;42.696;23.218;2023-04-07T12:54:45;94283.52;;;9.24;48.22
43553;BME280;29153;42.696;23.218;2023-04-07T12:57:13;94279.52;;;9.31;47.93
43553;BME280;29153;42.696;23.218;2023-04-07T12:59:41;94280.03;;;9.36;48.68
43553;BME280;29153;42.696;23.218;2023-04-07T13:02:09;94259.27;;;9.06;47.08
43553;BME280;29153;42.696;23.218;2023-04-07T13:04:39;94289.27;;;9.33;48.28
43553;BME280;29153;42.696;23.218;2023-04-07T13:07:08;94286.95;;;9.22;47.92
43553;BME280;29153;42.696;23.218;2023-04-07T13:09:36;94287.70;;;9.30;48.40
43553;BME280;29153;42.696;23.218;2023-04-07T13:12:04;94285.72;;;8.96;48.36
43553;BME280;29153;42.696;23.218;2023-04-07T13:14:32;94292.83;;;9.06;49.79
43553;BME280;29153;42.696;23.218;2023-04-07T13:16:59;94290.14;;;9.19;49.15
43553;BME280;29153;42.696;23.218;2023-04-07T13:19:28;94293.34;;;9.16;48.32
43553;BME280;29153;42.696;23.218;2023-04-07T13:21:58;94294.70;;;8.90;48.98
43553;BME280;29153;42.696;23.218;2023-04-07T13:24:26;94292.09;;;8.85;49.25
43553;BME280;29153;42.696;23.218;2023-04-07T13:26:53;94294.66;;;9.16;50.56
43553;BME280;29153;42.696;23.218;2023-04-07T13:29:23;94291.27;;;8.97;49.97
43553;BME280;29153;42.696;23.218;2023-04-07T13:31:51;94288.34;;;9.01;51.36
43553;BME280;29153;42.696;23.218;2023-04-07T13:34:19;94299.92;;;9.18;50.71
43553;BME280;29153;42.696;23.218;2023-04-07T13:36:47;94295.94;;;9.23;49.40
43553;BME280;29153;42.696;23.218;2023-04-07T13:39:14;94299.76;;;8.79;50.53
43553;BME280;29153;42.696;23.218;2023-04-07T13:41:42;94300.80;;;8.83;51.26